Lakehurst NAEC, New Jersey
Current Conditions -  °F | °C
As of 5:35 PM on Wednesday 22 Oct 2014 (Local Time) from KMJX Reporting Station
Overcast Overcast  
Wind Chill: 54°   Ceiling: 2400
Heat Index: 54°   Visibility: 10mi
Dew Point: 50°   Wind: 9mph
Humidity: 88%   Direction: 360°N
Pressure: 29.79"   Gusts: NA
Location:  40.0103°N, 74.337°W
Report Text: KMJX 222135Z AUTO 36008KT 10SM BKN024 OVC032 12/10 A2979 RMK AO1
Loading
Personal Weather Stations






























Interactive Weather Map
Tropical Storm Tracking
New forecast layout! Learn more

10-Day Weather Forecast

Advertisements
Track Severe Weather on mobile